Time;durP1;ratioP1;P1;durP2;ratioP2;P2;SDS_P1;SDS_P2;PMS_P1;PMS_P2;Temp;Humidity;BMP_temperature;BMP_pressure;BME280_temperature;BME280_humidity;BME280_pressure;Samples;Min_cycle;Max_cycle;Signal;HPM_P1;HPM_P2
2023/12/10 00:00:05;;;;;;;8.93;2.63;;;;;;;18.78;41.83;99771.25;5087720;28;20479;-69
2023/12/10 00:02:31;;;;;;;7.88;2.17;;;;;;;18.83;41.90;99784.81;5088375;28;20036;-69
2023/12/10 00:04:56;;;;;;;12.27;2.67;;;;;;;18.82;41.89;99777.88;5087043;28;20570;-69
2023/12/10 00:07:22;;;;;;;11.57;3.00;;;;;;;18.75;41.90;99782.94;5088820;28;20032;-70
2023/12/10 00:09:47;;;;;;;10.32;2.75;;;;;;;18.81;41.80;99800.78;5088355;28;20131;-69
2023/12/10 00:12:12;;;;;;;7.88;2.22;;;;;;;18.80;41.90;99796.53;5069190;28;20388;-69
2023/12/10 00:14:38;;;;;;;8.18;2.35;;;;;;;18.80;41.85;99787.75;5088646;28;20073;-69
2023/12/10 00:17:03;;;;;;;8.52;3.10;;;;;;;18.76;41.84;99796.97;5089005;28;20035;-69
2023/12/10 00:19:29;;;;;;;10.88;2.72;;;;;;;18.76;41.87;99792.50;5089122;28;20032;-69
2023/12/10 00:21:54;;;;;;;9.07;2.63;;;;;;;18.66;41.83;99787.34;5088768;28;20107;-69
2023/12/10 00:24:22;;;;;;;9.60;2.60;;;;;;;18.65;41.72;99784.84;5089487;28;20036;-70
2023/12/10 00:26:47;;;;;;;9.20;2.67;;;;;;;18.73;41.91;99813.94;5089140;28;20032;-69
2023/12/10 00:29:13;;;;;;;11.77;3.08;;;;;;;18.64;41.77;99802.50;5088707;28;20040;-69
2023/12/10 00:31:42;;;;;;;7.75;2.53;;;;;;;18.72;41.59;99814.09;5088687;28;20032;-69
2023/12/10 00:34:07;;;;;;;10.55;2.65;;;;;;;18.68;41.70;99811.75;5088484;28;20078;-69
2023/12/10 00:36:32;;;;;;;9.60;3.05;;;;;;;18.66;41.62;99826.09;5088661;28;20036;-69
2023/12/10 00:38:59;;;;;;;9.38;2.10;;;;;;;18.68;41.76;99827.59;5088424;28;20119;-69
2023/12/10 00:41:24;;;;;;;9.73;2.50;;;;;;;18.60;41.76;99802.97;5088669;28;20020;-68
2023/12/10 00:43:50;;;;;;;10.60;2.38;;;;;;;18.64;41.60;99828.03;5089712;28;20028;-68
2023/12/10 00:46:15;;;;;;;9.25;2.65;;;;;;;18.66;41.25;99836.66;5089982;28;20048;-69
2023/12/10 00:48:40;;;;;;;10.75;2.53;;;;;;;18.64;41.50;99820.13;5089684;28;20115;-69
2023/12/10 00:51:06;;;;;;;6.50;2.05;;;;;;;18.60;41.59;99827.53;5089842;28;20407;-69
2023/12/10 00:53:32;;;;;;;8.38;2.78;;;;;;;18.58;41.59;99831.28;5089956;28;20107;-69
2023/12/10 00:55:57;;;;;;;8.77;2.20;;;;;;;18.60;41.39;99840.72;5089740;28;20039;-67
2023/12/10 00:58:22;;;;;;;9.00;2.40;;;;;;;18.57;41.22;99840.19;5089683;28;20468;-68
2023/12/10 01:00:48;;;;;;;9.23;2.30;;;;;;;18.52;41.37;99838.00;5089373;28;20028;-69
2023/12/10 01:03:13;;;;;;;6.85;1.90;;;;;;;18.57;41.36;99850.75;5089165;28;20132;-68
2023/12/10 01:05:38;;;;;;;7.57;2.30;;;;;;;18.49;41.63;99840.94;5089956;28;20075;-68
2023/12/10 01:08:04;;;;;;;8.93;2.72;;;;;;;18.49;41.40;99846.22;5089868;28;20031;-69
2023/12/10 01:10:29;;;;;;;9.63;2.50;;;;;;;18.59;41.31;99859.34;5089486;28;20043;-70
2023/12/10 01:12:56;;;;;;;10.00;3.13;;;;;;;18.57;41.45;99848.13;5089961;28;20499;-69
2023/12/10 01:15:29;;;;;;;7.22;2.10;;;;;;;18.57;41.52;99863.94;5087495;28;20032;-68
2023/12/10 01:18:01;;;;;;;10.32;2.58;;;;;;;18.52;41.48;99848.56;5086895;28;20035;-69
2023/12/10 01:20:33;;;;;;;8.05;2.25;;;;;;;18.47;41.32;99838.47;5086386;28;20093;-69
2023/12/10 01:22:59;;;;;;;8.90;2.70;;;;;;;18.47;41.41;99843.75;5086062;28;20119;-69
2023/12/10 01:25:25;;;;;;;8.82;2.40;;;;;;;18.45;41.32;99840.44;5086635;28;20107;-69
2023/12/10 01:27:53;;;;;;;7.35;2.10;;;;;;;18.44;41.66;99857.22;5086563;28;20032;-69
2023/12/10 01:30:23;;;;;;;8.65;2.20;;;;;;;18.46;41.52;99863.19;5084993;28;20118;-69
2023/12/10 01:32:50;;;;;;;6.32;2.00;;;;;;;18.53;41.25;99881.06;5086720;28;20107;-69
2023/12/10 01:35:15;;;;;;;9.48;2.50;;;;;;;18.52;41.52;99887.28;5086449;28;20465;-68
2023/12/10 01:37:40;;;;;;;8.95;2.35;;;;;;;18.51;41.35;99883.03;5087103;28;20047;-68
2023/12/10 01:40:08;;;;;;;6.55;2.20;;;;;;;18.43;41.38;99881.94;5086388;28;20043;-69
2023/12/10 01:42:34;;;;;;;9.07;2.20;;;;;;;18.49;41.11;99906.91;5087260;28;20036;-69
2023/12/10 01:45:00;;;;;;;6.95;2.30;;;;;;;18.40;41.04;99886.69;5086709;28;20617;-69
2023/12/10 01:47:28;;;;;;;8.25;2.20;;;;;;;18.38;41.11;99886.03;5087349;28;20040;-69
2023/12/10 01:49:55;;;;;;;9.18;2.30;;;;;;;18.43;41.05;99908.31;5086495;28;20027;-68
2023/12/10 01:52:22;;;;;;;9.95;2.30;;;;;;;18.40;41.16;99911.25;5086946;28;20115;-69
2023/12/10 01:54:47;;;;;;;8.63;2.00;;;;;;;18.42;41.02;99900.56;5086681;28;20122;-69
2023/12/10 01:57:14;;;;;;;8.45;2.03;;;;;;;18.43;41.12;99908.31;5086862;28;20568;-70
2023/12/10 01:59:40;;;;;;;9.18;2.35;;;;;;;18.43;41.12;99912.78;5083904;28;20042;-69
2023/12/10 02:02:05;;;;;;;11.50;2.30;;;;;;;18.34;40.93;99893.41;5085729;28;20036;-68
2023/12/10 02:04:31;;;;;;;7.25;2.03;;;;;;;18.34;41.23;99919.78;5085388;28;20024;-69
2023/12/10 02:06:56;;;;;;;7.28;2.22;;;;;;;18.31;41.09;99899.00;5085292;28;20069;-71
2023/12/10 02:09:21;;;;;;;8.57;2.30;;;;;;;18.41;41.36;99917.38;5085397;28;20028;-70
2023/12/10 02:11:47;;;;;;;9.93;2.47;;;;;;;18.28;41.08;99907.19;5085502;28;20111;-70
2023/12/10 02:14:12;;;;;;;7.18;2.05;;;;;;;18.30;41.12;99919.25;5085743;28;20032;-69
2023/12/10 02:16:38;;;;;;;9.02;2.00;;;;;;;18.35;41.20;99924.06;5085789;28;20056;-69
2023/12/10 02:19:03;;;;;;;6.63;1.92;;;;;;;18.38;41.40;99933.50;5085789;28;20032;-70
2023/12/10 02:21:31;;;;;;;8.52;1.90;;;;;;;18.29;41.03;99906.19;5086368;28;20028;-69
2023/12/10 02:24:01;;;;;;;9.05;2.33;;;;;;;18.34;41.12;99911.03;5086569;28;20460;-69
2023/12/10 02:26:27;;;;;;;7.85;2.28;;;;;;;18.37;40.92;99937.94;5068334;28;20032;-69
2023/12/10 02:28:53;;;;;;;9.55;2.08;;;;;;;18.35;41.38;99920.63;5089536;28;20480;-69
2023/12/10 02:31:19;;;;;;;6.38;2.45;;;;;;;18.28;41.10;99925.66;5090385;28;20038;-68
2023/12/10 02:33:45;;;;;;;8.55;2.50;;;;;;;18.26;40.98;99917.91;5090415;28;20063;-69
2023/12/10 02:36:11;;;;;;;8.80;2.03;;;;;;;18.25;41.22;99932.03;5090706;28;20028;-69
2023/12/10 02:38:36;;;;;;;7.07;2.00;;;;;;;18.30;41.09;99936.88;5089820;28;20032;-69
2023/12/10 02:41:02;;;;;;;6.82;1.90;;;;;;;18.33;41.14;99946.31;5090570;28;20076;-69
2023/12/10 02:43:27;;;;;;;8.73;2.25;;;;;;;18.31;41.21;99949.94;5090636;28;20129;-69
2023/12/10 02:45:52;;;;;;;8.23;2.20;;;;;;;18.24;41.05;99916.38;5089637;28;20040;-69
2023/12/10 02:48:21;;;;;;;7.00;1.70;;;;;;;18.29;40.87;99932.56;5088656;28;20078;-69
2023/12/10 02:50:48;;;;;;;7.85;2.13;;;;;;;18.22;41.01;99926.25;5089367;28;20040;-69
2023/12/10 02:53:13;;;;;;;5.55;2.03;;;;;;;18.25;40.84;99931.22;5065688;28;20418;-69
2023/12/10 02:55:38;;;;;;;7.20;2.55;;;;;;;18.17;41.15;99939.88;5088554;28;20086;-69
2023/12/10 02:58:04;;;;;;;7.50;2.17;;;;;;;18.17;40.85;99921.41;5089374;28;20077;-69
2023/12/10 03:00:29;;;;;;;7.80;1.92;;;;;;;18.24;40.91;99956.75;5089314;28;20107;-69
2023/12/10 03:02:54;;;;;;;8.70;2.20;;;;;;;18.27;40.53;99958.28;5089547;28;20404;-69
2023/12/10 03:05:21;;;;;;;7.93;2.05;;;;;;;18.25;40.71;99955.78;5088769;28;20406;-69
2023/12/10 03:07:46;;;;;;;9.32;2.10;;;;;;;18.17;40.93;99946.97;5089399;28;20111;-70
2023/12/10 03:10:11;;;;;;;7.90;2.10;;;;;;;18.17;40.73;99950.41;5089096;28;20157;-70
2023/12/10 03:12:37;;;;;;;7.43;2.00;;;;;;;18.16;40.96;99954.03;5088836;28;20028;-69
2023/12/10 03:15:02;;;;;;;8.32;2.40;;;;;;;18.18;40.91;99961.78;5088605;28;20032;-70
2023/12/10 03:17:27;;;;;;;8.57;2.05;;;;;;;18.15;40.81;99964.72;5089593;28;20089;-70
2023/12/10 03:19:53;;;;;;;6.68;1.90;;;;;;;18.13;40.91;99962.22;5089724;28;20488;-69
2023/12/10 03:22:18;;;;;;;7.50;1.92;;;;;;;18.11;40.56;99951.81;5089855;28;20614;-70
2023/12/10 03:24:43;;;;;;;8.35;2.22;;;;;;;18.20;40.48;99979.13;5089654;28;20024;-69
2023/12/10 03:27:09;;;;;;;6.88;1.88;;;;;;;18.18;40.16;99978.44;5089759;28;20035;-69
2023/12/10 03:29:34;;;;;;;6.78;2.03;;;;;;;18.22;40.52;99989.53;5088551;28;20035;-69
2023/12/10 03:31:59;;;;;;;8.82;2.42;;;;;;;18.19;40.32;99980.09;5088867;28;20166;-69
2023/12/10 03:34:25;;;;;;;8.02;2.45;;;;;;;18.19;40.40;100005.66;5089169;28;20117;-70
2023/12/10 03:36:51;;;;;;;7.93;2.08;;;;;;;18.20;40.23;100008.16;5089187;28;20177;-69
2023/12/10 03:39:17;;;;;;;7.70;1.80;;;;;;;18.12;40.35;99994.88;5089082;28;20031;-69
2023/12/10 03:41:42;;;;;;;7.93;2.17;;;;;;;18.19;40.72;100013.56;5088936;28;20396;-69
2023/12/10 03:44:07;;;;;;;7.78;2.00;;;;;;;18.19;40.49;100011.75;5089536;28;20039;-69
2023/12/10 03:46:32;;;;;;;7.88;1.73;;;;;;;18.17;40.47;99997.06;5089073;28;20044;-70
2023/12/10 03:48:58;;;;;;;7.55;2.38;;;;;;;18.11;40.47;99987.91;5088657;28;20020;-69
2023/12/10 03:51:23;;;;;;;7.47;1.95;;;;;;;18.11;40.23;99991.38;5089026;28;20036;-68
2023/12/10 03:53:48;;;;;;;7.63;2.08;;;;;;;18.08;40.41;99994.28;5089093;28;20028;-69
2023/12/10 03:56:14;;;;;;;9.43;2.20;;;;;;;18.08;40.09;99999.56;5088810;28;20028;-69
2023/12/10 03:58:39;;;;;;;9.35;2.45;;;;;;;18.18;40.23;100027.72;5088617;28;20102;-69
2023/12/10 04:01:04;;;;;;;8.07;1.90;;;;;;;18.11;40.28;100001.91;5088665;28;20059;-69
2023/12/10 04:03:30;;;;;;;7.95;2.10;;;;;;;18.14;40.06;100008.72;5087826;28;20024;-69
2023/12/10 04:05:56;;;;;;;7.47;2.08;;;;;;;18.17;39.97;100031.34;5088091;28;20460;-68
2023/12/10 04:08:21;;;;;;;8.73;2.10;;;;;;;18.17;40.21;100015.53;5087792;28;20406;-68
2023/12/10 04:10:46;;;;;;;6.15;1.95;;;;;;;18.09;40.22;100013.59;5087701;28;20027;-68
2023/12/10 04:13:12;;;;;;;8.60;2.28;;;;;;;18.12;40.32;100022.06;5087534;28;20028;-69
2023/12/10 04:15:37;;;;;;;7.88;1.80;;;;;;;18.12;40.15;100031.78;5087713;28;20042;-69
2023/12/10 04:18:02;;;;;;;7.30;1.85;;;;;;;18.08;40.01;100025.94;5087883;28;20036;-69
2023/12/10 04:20:28;;;;;;;7.88;2.03;;;;;;;18.07;40.05;100028.72;5088161;28;20027;-69
2023/12/10 04:22:53;;;;;;;7.57;1.98;;;;;;;18.09;39.88;100040.78;5088044;28;20024;-69
2023/12/10 04:25:18;;;;;;;8.90;2.28;;;;;;;18.09;39.89;100050.53;5087370;28;20028;-69
2023/12/10 04:27:44;;;;;;;7.75;1.70;;;;;;;18.04;39.79;100040.41;5087969;28;20082;-69
2023/12/10 04:30:10;;;;;;;8.23;1.98;;;;;;;18.01;39.67;100037.19;5085892;28;20031;-70
2023/12/10 04:32:35;;;;;;;7.05;1.90;;;;;;;18.04;39.83;100044.81;5087186;28;20039;-71
2023/12/10 04:35:00;;;;;;;7.30;2.08;;;;;;;18.09;39.95;100069.81;5086735;28;20311;-71
2023/12/10 04:37:26;;;;;;;10.88;2.25;;;;;;;18.00;39.60;100062.75;5087510;28;20036;-67
2023/12/10 04:39:53;;;;;;;7.70;2.25;;;;;;;18.09;39.82;100080.34;5087596;28;20479;-69
2023/12/10 04:42:18;;;;;;;7.32;1.77;;;;;;;18.07;39.94;100097.28;5087410;28;20027;-70
2023/12/10 04:44:43;;;;;;;8.18;1.77;;;;;;;18.08;39.72;100088.41;5086765;28;20177;-68
2023/12/10 04:47:09;;;;;;;7.50;1.90;;;;;;;18.00;39.81;100072.47;5087278;28;20047;-68
2023/12/10 04:49:34;;;;;;;7.45;1.83;;;;;;;18.07;39.65;100098.13;5086570;28;20028;-69
2023/12/10 04:51:59;;;;;;;6.53;2.08;;;;;;;17.96;39.78;100079.84;5087077;28;20024;-69
2023/12/10 04:54:26;;;;;;;7.93;2.00;;;;;;;18.07;39.87;100102.53;5086961;28;20028;-69
2023/12/10 04:56:51;;;;;;;6.65;2.03;;;;;;;17.97;39.89;100086.75;5087232;28;20465;-68
2023/12/10 04:59:16;;;;;;;6.70;1.80;;;;;;;17.97;39.78;100096.47;5086830;28;20077;-69
2023/12/10 05:01:42;;;;;;;7.25;1.90;;;;;;;18.05;39.49;100117.69;5086600;28;20119;-69
2023/12/10 05:04:08;;;;;;;7.05;1.75;;;;;;;17.93;39.61;100104.66;5087798;28;20055;-70
2023/12/10 05:06:33;;;;;;;9.38;2.10;;;;;;;17.94;39.62;100113.41;5087909;28;20605;-69
2023/12/10 05:08:58;;;;;;;6.75;1.80;;;;;;;18.01;39.57;100122.41;5087812;28;20039;-69
2023/12/10 05:11:24;;;;;;;8.75;2.10;;;;;;;18.03;39.71;100159.19;5087525;28;20032;-69
2023/12/10 05:13:49;;;;;;;6.93;1.90;;;;;;;17.93;39.54;100144.22;5087417;28;20514;-70
2023/12/10 05:16:15;;;;;;;7.43;1.92;;;;;;;18.03;39.48;100167.91;5087162;28;20032;-69
2023/12/10 05:18:40;;;;;;;6.10;2.03;;;;;;;17.94;39.58;100142.41;5086677;28;20079;-69
2023/12/10 05:21:05;;;;;;;6.88;2.00;;;;;;;17.96;39.55;100151.00;5086658;28;20541;-68
2023/12/10 05:23:31;;;;;;;9.23;2.28;;;;;;;18.00;39.62;100160.28;5086769;28;20406;-70
2023/12/10 05:25:56;;;;;;;6.63;2.03;;;;;;;17.93;39.88;100148.66;5086499;28;20028;-69
2023/12/10 05:28:21;;;;;;;7.95;2.10;;;;;;;18.01;39.58;100175.16;5086338;28;20035;-69
2023/12/10 05:30:47;;;;;;;9.63;2.05;;;;;;;17.99;39.61;100163.06;5084907;28;20035;-70
2023/12/10 05:33:12;;;;;;;7.25;2.20;;;;;;;18.00;39.49;100181.38;5086868;28;20032;-70
2023/12/10 05:35:37;;;;;;;7.70;2.10;;;;;;;17.99;39.44;100182.38;5087307;28;20039;-70
2023/12/10 05:38:03;;;;;;;8.52;2.13;;;;;;;17.91;39.50;100190.97;5086866;28;20484;-69
2023/12/10 05:40:29;;;;;;;6.35;1.65;;;;;;;17.93;39.48;100209.28;5087449;28;20078;-69
2023/12/10 05:42:54;;;;;;;7.07;2.03;;;;;;;17.97;39.33;100207.19;5086605;28;20131;-69
2023/12/10 05:45:20;;;;;;;8.85;2.20;;;;;;;17.97;39.37;100204.56;5086869;28;20471;-69
2023/12/10 05:47:45;;;;;;;7.22;1.60;;;;;;;17.97;39.60;100204.56;5085276;28;20067;-69
2023/12/10 05:50:10;;;;;;;8.35;2.10;;;;;;;17.96;39.30;100206.38;5085213;28;20028;-69
2023/12/10 05:52:36;;;;;;;6.15;1.63;;;;;;;17.97;39.25;100207.19;5084863;28;20027;-69
2023/12/10 05:55:01;;;;;;;7.38;1.90;;;;;;;17.98;39.34;100216.78;5085766;28;20423;-69
2023/12/10 05:57:27;;;;;;;7.20;1.98;;;;;;;17.87;39.53;100205.38;5085411;28;20122;-70
2023/12/10 05:59:53;;;;;;;9.10;2.00;;;;;;;17.93;39.66;100204.03;5085973;28;20073;-69
2023/12/10 06:02:18;;;;;;;7.07;1.55;;;;;;;17.87;39.35;100223.00;5085439;28;20024;-70
2023/12/10 06:04:45;;;;;;;8.90;2.28;;;;;;;17.86;39.52;100229.22;5086394;28;20035;-70
2023/12/10 06:07:10;;;;;;;7.15;1.90;;;;;;;17.91;39.54;100242.84;5086160;28;20039;-70
2023/12/10 06:09:36;;;;;;;8.45;2.13;;;;;;;17.85;39.70;100224.91;5085781;28;20032;-70
2023/12/10 06:12:01;;;;;;;7.57;1.83;;;;;;;17.92;39.88;100241.88;5086701;28;20035;-69
2023/12/10 06:14:26;;;;;;;6.68;1.88;;;;;;;17.92;40.08;100242.72;5086642;28;20032;-70
2023/12/10 06:16:51;;;;;;;7.55;1.77;;;;;;;18.02;39.96;100255.06;5086754;28;20032;-70
2023/12/10 06:19:17;;;;;;;6.55;1.83;;;;;;;17.97;40.30;100244.94;5067792;28;20040;-70
2023/12/10 06:21:42;;;;;;;8.35;1.90;;;;;;;18.04;39.93;100261.03;5086787;28;20137;-70
2023/12/10 06:24:07;;;;;;;5.85;1.40;;;;;;;18.03;40.13;100252.28;5086132;28;20059;-70
2023/12/10 06:26:33;;;;;;;8.15;1.88;;;;;;;18.13;40.33;100284.78;5086283;28;20074;-69
2023/12/10 06:28:58;;;;;;;7.93;1.77;;;;;;;18.03;40.17;100264.66;5085160;28;20036;-70
2023/12/10 06:31:23;;;;;;;5.35;1.40;;;;;;;18.08;40.39;100286.16;5085804;28;20028;-69
2023/12/10 06:33:49;;;;;;;4.95;1.50;;;;;;;18.20;40.15;100310.59;5086538;28;20468;-70
2023/12/10 06:36:14;;;;;;;5.88;1.52;;;;;;;18.23;40.02;100305.03;5086188;28;20031;-69
2023/12/10 06:38:39;;;;;;;7.07;1.83;;;;;;;18.20;40.07;100315.88;5086227;28;20028;-70
2023/12/10 06:41:06;;;;;;;9.07;1.92;;;;;;;18.23;39.80;100297.97;5086487;28;20036;-70
2023/12/10 06:43:31;;;;;;;5.70;1.55;;;;;;;18.22;40.03;100293.66;5086631;28;20024;-69
2023/12/10 06:45:58;;;;;;;7.00;1.77;;;;;;;18.25;40.15;100292.56;5085512;28;20466;-70
2023/12/10 06:48:24;;;;;;;5.80;1.30;;;;;;;18.29;39.63;100315.91;5086188;28;20060;-70
2023/12/10 06:50:49;;;;;;;6.40;1.50;;;;;;;18.39;39.64;100333.50;5085045;28;20503;-70
2023/12/10 06:53:14;;;;;;;7.40;1.60;;;;;;;18.40;39.70;100341.28;5085194;28;20032;-68
2023/12/10 06:55:40;;;;;;;5.55;1.70;;;;;;;18.33;39.67;100342.81;5084729;28;20036;-69
2023/12/10 06:58:05;;;;;;;6.63;1.50;;;;;;;18.34;39.58;100331.31;5084502;28;20120;-68
2023/12/10 07:00:31;;;;;;;5.13;1.65;;;;;;;18.44;39.70;100339.22;5085307;28;20758;-69
2023/12/10 07:02:56;;;;;;;8.15;1.77;;;;;;;18.47;39.41;100370.59;5085442;28;20391;-69
2023/12/10 07:05:22;;;;;;;7.20;1.85;;;;;;;18.37;39.81;100356.56;5085852;28;20039;-70
2023/12/10 07:07:47;;;;;;;5.40;1.58;;;;;;;18.49;39.65;100380.03;5086369;28;20029;-69
2023/12/10 07:10:13;;;;;;;7.45;1.73;;;;;;;18.49;39.86;100374.75;5085770;28;20464;-69
2023/12/10 07:12:39;;;;;;;6.25;1.48;;;;;;;18.42;39.72;100357.81;5086114;28;20036;-70
2023/12/10 07:15:05;;;;;;;6.78;2.00;;;;;;;18.50;39.72;100375.63;5089770;28;20107;-70
2023/12/10 07:17:30;;;;;;;5.45;1.70;;;;;;;18.51;39.73;100376.44;5089531;28;20110;-70
2023/12/10 07:19:56;;;;;;;7.95;1.58;;;;;;;18.42;39.79;100370.16;5088764;28;20157;-70
2023/12/10 07:22:21;;;;;;;8.85;1.92;;;;;;;18.49;39.71;100381.84;5088654;28;20032;-70
2023/12/10 07:24:47;;;;;;;5.93;1.70;;;;;;;18.52;39.87;100392.13;5088113;28;20071;-70
2023/12/10 07:27:12;;;;;;;6.15;1.70;;;;;;;18.49;39.37;100401.16;5085533;28;20020;-68
2023/12/10 07:29:37;;;;;;;5.43;1.33;;;;;;;18.51;39.77;100402.81;5087186;28;20087;-70
2023/12/10 07:32:03;;;;;;;7.65;1.70;;;;;;;18.47;39.60;100408.38;5088346;28;20030;-70
2023/12/10 07:34:28;;;;;;;6.30;1.60;;;;;;;18.42;39.88;100402.69;5088062;28;20422;-70
2023/12/10 07:36:53;;;;;;;7.70;1.83;;;;;;;18.53;39.78;100430.72;5089020;28;20032;-69
2023/12/10 07:39:19;;;;;;;5.35;1.63;;;;;;;18.48;39.65;100425.88;5088804;28;20484;-70
2023/12/10 07:41:44;;;;;;;6.25;1.58;;;;;;;18.48;39.64;100428.53;5088341;28;20024;-70
2023/12/10 07:44:09;;;;;;;6.25;1.90;;;;;;;18.48;39.64;100436.44;5088836;28;20038;-70
2023/12/10 07:46:35;;;;;;;6.80;1.50;;;;;;;18.41;39.57;100424.75;5087805;28;20503;-70
2023/12/10 07:49:00;;;;;;;8.07;1.90;;;;;;;18.43;39.78;100441.28;5088862;28;20036;-70
2023/12/10 07:51:25;;;;;;;6.13;1.50;;;;;;;18.42;39.58;100428.22;5087820;28;20514;-70
2023/12/10 07:53:51;;;;;;;6.40;1.85;;;;;;;18.40;39.58;100454.72;5087967;28;20089;-69
2023/12/10 07:56:16;;;;;;;5.78;1.70;;;;;;;18.51;39.10;100464.34;5088104;28;20441;-70
2023/12/10 07:58:41;;;;;;;9.05;1.73;;;;;;;18.50;39.37;100467.97;5087815;28;20459;-69
2023/12/10 08:01:10;;;;;;;6.95;1.60;;;;;;;18.41;39.46;100459.03;5087659;28;20024;-69
2023/12/10 08:03:36;;;;;;;6.20;1.50;;;;;;;18.49;39.46;100466.28;5088078;28;20035;-71
2023/12/10 08:06:02;;;;;;;7.03;1.70;;;;;;;18.51;39.65;100476.72;5088114;28;20028;-70
2023/12/10 08:08:27;;;;;;;5.78;1.67;;;;;;;18.45;39.86;100460.47;5087853;28;20035;-70
2023/12/10 08:10:52;;;;;;;6.07;1.70;;;;;;;18.43;40.12;100464.19;5087471;28;20043;-71
2023/12/10 08:13:18;;;;;;;8.27;1.85;;;;;;;18.49;39.82;100472.38;5087648;28;20036;-70
2023/12/10 08:15:43;;;;;;;8.68;1.92;;;;;;;18.41;40.23;100469.59;5087851;28;20123;-71
2023/12/10 08:18:08;;;;;;;6.30;1.65;;;;;;;18.44;39.89;100479.06;5069371;28;20028;-72
2023/12/10 08:20:34;;;;;;;7.43;1.60;;;;;;;18.52;40.10;100481.84;5088534;28;20123;-71
2023/12/10 08:23:00;;;;;;;7.78;1.80;;;;;;;18.47;40.31;100495.44;5088557;28;20119;-71
2023/12/10 08:25:25;;;;;;;8.25;1.70;;;;;;;18.45;40.49;100491.25;5087540;28;20465;-71
2023/12/10 08:27:51;;;;;;;7.57;1.88;;;;;;;18.49;40.34;100504.06;5088100;28;20028;-69
2023/12/10 08:30:16;;;;;;;6.25;2.13;;;;;;;18.52;40.17;100516.16;5087233;28;20055;-69
2023/12/10 08:32:42;;;;;;;6.07;1.60;;;;;;;18.47;40.31;100508.66;5088392;28;20734;-71
2023/12/10 08:35:07;;;;;;;6.38;2.10;;;;;;;18.53;40.49;100524.91;5087593;28;20468;-71
2023/12/10 08:37:33;;;;;;;6.97;1.63;;;;;;;18.51;40.84;100521.56;5087491;28;20032;-71
2023/12/10 08:39:59;;;;;;;7.10;1.50;;;;;;;18.55;40.64;100536.16;5085939;28;20587;-71
2023/12/10 08:42:25;;;;;;;8.93;2.03;;;;;;;18.46;40.69;100524.59;5087320;28;20473;-70
2023/12/10 08:44:51;;;;;;;7.82;2.20;;;;;;;18.47;40.69;100518.38;5087238;28;20389;-70
2023/12/10 08:47:16;;;;;;;6.78;1.75;;;;;;;18.48;40.54;100522.66;4974115;28;20064;-71
2023/12/10 08:49:41;;;;;;;6.97;1.95;;;;;;;18.46;40.83;100522.78;5073711;28;20464;-70
2023/12/10 08:52:07;;;;;;;8.50;2.40;;;;;;;18.53;41.69;100536.28;5087266;28;20467;-71
2023/12/10 08:54:32;;;;;;;7.22;2.20;;;;;;;18.57;42.59;100540.34;5087031;28;20028;-70
2023/12/10 08:56:57;;;;;;;8.27;2.60;;;;;;;18.52;43.17;100533.78;5086680;28;20118;-70
2023/12/10 08:59:23;;;;;;;8.00;2.35;;;;;;;18.60;43.66;100542.69;5068515;28;20479;-70
2023/12/10 09:01:48;;;;;;;7.93;1.80;;;;;;;18.59;43.96;100541.03;5086975;28;20024;-70
2023/12/10 09:04:13;;;;;;;8.05;2.33;;;;;;;18.57;43.56;100540.34;5087267;28;20032;-69
2023/12/10 09:06:39;;;;;;;8.85;2.25;;;;;;;18.65;43.77;100558.13;5087670;28;20028;-70
2023/12/10 09:09:04;;;;;;;11.30;2.60;;;;;;;18.59;43.32;100541.03;5087686;28;20035;-70
2023/12/10 09:11:30;;;;;;;8.00;2.03;;;;;;;18.66;43.60;100558.00;5087231;28;20024;-70
2023/12/10 09:13:56;;;;;;;9.80;2.67;;;;;;;18.61;43.59;100554.09;5087818;28;20035;-71
2023/12/10 09:16:22;;;;;;;7.82;2.17;;;;;;;18.64;43.99;100557.31;5087360;28;20384;-70
2023/12/10 09:18:48;;;;;;;10.30;2.35;;;;;;;18.63;44.23;100568.84;5086625;28;20746;-70
2023/12/10 09:21:13;;;;;;;7.90;2.63;;;;;;;18.59;43.59;100556.84;5087557;28;20047;-70
2023/12/10 09:23:39;;;;;;;10.02;2.92;;;;;;;18.58;43.25;100563.13;5086802;28;20028;-70
2023/12/10 09:26:04;;;;;;;8.10;2.72;;;;;;;18.58;43.16;100560.47;5086763;28;20143;-71
2023/12/10 09:28:30;;;;;;;8.23;2.55;;;;;;;18.54;42.89;100543.25;5087035;28;20031;-70
2023/12/10 09:30:55;;;;;;;8.75;1.95;;;;;;;18.59;42.82;100558.66;5084946;28;20112;-71
2023/12/10 09:33:20;;;;;;;9.88;2.50;;;;;;;18.57;42.83;100557.97;5087239;28;20479;-71
2023/12/10 09:35:46;;;;;;;9.52;2.50;;;;;;;18.60;42.95;100563.81;5085595;28;20388;-72
2023/12/10 09:38:12;;;;;;;8.32;2.38;;;;;;;18.58;42.59;100562.28;5086080;28;20162;-72
2023/12/10 09:40:38;;;;;;;8.93;2.45;;;;;;;18.62;43.05;100576.88;5085891;28;20032;-72
2023/12/10 09:43:03;;;;;;;8.27;1.83;;;;;;;18.65;43.21;100576.63;5086801;28;20503;-72
2023/12/10 09:45:29;;;;;;;8.20;2.13;;;;;;;18.63;43.14;100581.19;5086026;28;20044;-71
2023/12/10 09:47:55;;;;;;;11.23;2.60;;;;;;;18.66;43.17;100573.00;5086225;28;20028;-71
2023/12/10 09:50:22;;;;;;;7.38;2.03;;;;;;;18.63;43.15;100578.56;5086051;28;20024;-69
2023/12/10 09:52:48;;;;;;;9.55;2.65;;;;;;;18.65;43.25;100571.34;5087064;28;20111;-68
2023/12/10 09:55:13;;;;;;;6.90;2.05;;;;;;;18.56;42.84;100572.97;5087164;28;20490;-70
2023/12/10 09:57:39;;;;;;;8.15;2.50;;;;;;;18.65;42.85;100584.53;5086748;28;20047;-70
2023/12/10 10:00:06;;;;;;;8.10;2.30;;;;;;;18.62;42.95;100569.78;5086822;28;20036;-68
2023/12/10 10:02:32;;;;;;;8.15;1.98;;;;;;;18.67;42.75;100580.81;5086740;28;20111;-68
2023/12/10 10:04:58;;;;;;;10.13;2.63;;;;;;;18.60;42.50;100560.34;5086088;28;20602;-68
2023/12/10 10:07:23;;;;;;;6.75;2.38;;;;;;;18.68;42.60;100581.63;5085953;28;20047;-69
2023/12/10 10:09:48;;;;;;;8.15;2.38;;;;;;;18.59;42.46;100577.97;5085732;28;20528;-68
2023/12/10 10:12:14;;;;;;;7.13;1.92;;;;;;;18.58;42.22;100562.28;5085885;28;20487;-69
2023/12/10 10:14:54;;;;;;;7.57;1.95;;;;;;;18.65;42.40;100564.25;5084515;28;20463;-68
2023/12/10 10:17:34;;;;;;;8.48;2.10;;;;;;;18.63;42.46;100571.47;5084583;28;20032;-68
2023/12/10 10:20:00;;;;;;;8.15;2.15;;;;;;;18.62;42.39;100553.13;5085847;28;20024;-68
2023/12/10 10:22:27;;;;;;;8.75;2.60;;;;;;;18.55;42.43;100530.88;5086382;28;20047;-71
2023/12/10 10:24:56;;;;;;;8.63;2.15;;;;;;;18.62;42.38;100548.66;5051309;28;20040;-71
2023/12/10 10:27:22;;;;;;;8.82;2.30;;;;;;;18.57;42.29;100528.94;5086395;28;20028;-68
2023/12/10 10:29:59;;;;;;;7.45;2.25;;;;;;;18.54;42.34;100534.50;5066976;28;20395;-68
2023/12/10 10:32:27;;;;;;;8.77;2.17;;;;;;;18.58;42.38;100549.94;5086157;28;20453;-68
2023/12/10 10:34:54;;;;;;;7.53;2.15;;;;;;;18.64;42.42;100553.81;5086743;28;20032;-69
2023/12/10 10:37:20;;;;;;;6.70;1.73;;;;;;;18.64;42.17;100564.38;5083848;28;20044;-68
2023/12/10 10:39:49;;;;;;;5.88;2.25;;;;;;;18.60;42.48;100565.63;5085616;28;20397;-68
2023/12/10 10:42:17;;;;;;;7.95;2.00;;;;;;;18.61;42.00;100562.00;5085926;28;20032;-69
2023/12/10 10:44:42;;;;;;;8.57;2.10;;;;;;;18.64;42.54;100567.88;5085187;28;20077;-70
2023/12/10 10:47:08;;;;;;;9.15;2.17;;;;;;;18.63;42.24;100575.91;5085244;28;20175;-69
2023/12/10 10:49:41;;;;;;;6.60;1.75;;;;;;;18.63;42.19;100576.75;5089190;28;20468;-69
2023/12/10 10:52:13;;;;;;;9.20;2.17;;;;;;;18.61;42.26;100577.84;5089402;28;20396;-68
2023/12/10 10:54:39;;;;;;;5.93;1.63;;;;;;;18.60;42.03;100569.09;5089779;28;20039;-70
2023/12/10 10:57:04;;;;;;;7.20;1.85;;;;;;;18.58;42.05;100567.53;5088972;28;20028;-71
2023/12/10 10:59:32;;;;;;;8.43;2.10;;;;;;;18.48;42.30;100535.84;5089268;28;20381;-69
2023/12/10 11:02:05;;;;;;;8.32;1.98;;;;;;;18.61;42.28;100572.56;5089495;28;20770;-69
2023/12/10 11:04:35;;;;;;;7.00;2.15;;;;;;;18.58;42.20;100559.63;5089645;28;20073;-70
2023/12/10 11:07:02;;;;;;;7.40;1.98;;;;;;;18.55;42.24;100544.91;5088626;28;20138;-69
2023/12/10 11:09:30;;;;;;;7.68;1.80;;;;;;;18.54;42.43;100548.50;5088526;28;20036;-69
2023/12/10 11:11:56;;;;;;;8.18;2.30;;;;;;;18.63;42.34;100562.72;5088859;28;20051;-70
2023/12/10 11:14:22;;;;;;;5.93;1.60;;;;;;;18.64;42.04;100546.75;5088623;28;20464;-70
2023/12/10 11:17:05;;;;;;;8.38;1.80;;;;;;;18.64;42.14;100551.19;5088701;28;20047;-70
2023/12/10 11:19:32;;;;;;;6.90;2.00;;;;;;;18.57;41.97;100536.88;5089112;28;20465;-69